Gilleleje, Denmark
Current Conditions -  °F | °C
As of 10:20 AM on Friday 19 Dec 2014 (Local Time) from ESTA Reporting Station
Broken Clouds Broken Clouds  
Wind Chill: 40°   Ceiling: 2300
Heat Index: 46°   Visibility: 6mi
Dew Point: 43°   Wind: 15mph
Humidity: 87%   Direction: 250°WSW
Pressure: 29.41"   Gusts: NA
Location:  56.12°N, 12.31°E
Report Text: ESTA 190920Z 25013KT 9999 SCT011 BKN023 08/06 Q0996
Loading
Personal Weather Stations






























Interactive Weather Map New forecast layout! Learn more

10-Day Weather Forecast

Advertisements
Track Severe Weather on mobile